sensor_id;sensor_type;location;lat;lon;timestamp;temperature;humidity
59311;DHT22;45078;51.654;21.250;2023-03-11T00:00:36;7.10;99.90
59311;DHT22;45078;51.654;21.250;2023-03-11T00:03:06;7.20;99.90
59311;DHT22;45078;51.654;21.250;2023-03-11T00:05:35;7.20;99.90
59311;DHT22;45078;51.654;21.250;2023-03-11T00:08:03;7.30;99.90
59311;DHT22;45078;51.654;21.250;2023-03-11T00:10:32;7.30;99.90
59311;DHT22;45078;51.654;21.250;2023-03-11T00:12:59;7.40;99.90
59311;DHT22;45078;51.654;21.250;2023-03-11T00:15:26;7.40;99.90
59311;DHT22;45078;51.654;21.250;2023-03-11T00:17:52;7.60;99.90
59311;DHT22;45078;51.654;21.250;2023-03-11T00:20:30;7.60;99.90
59311;DHT22;45078;51.654;21.250;2023-03-11T00:22:58;7.60;99.90
59311;DHT22;45078;51.654;21.250;2023-03-11T00:25:26;7.60;99.90
59311;DHT22;45078;51.654;21.250;2023-03-11T00:27:53;7.60;99.90
59311;DHT22;45078;51.654;21.250;2023-03-11T00:30:19;7.70;99.90
59311;DHT22;45078;51.654;21.250;2023-03-11T00:32:47;7.60;99.90
59311;DHT22;45078;51.654;21.250;2023-03-11T00:35:16;7.60;99.90
59311;DHT22;45078;51.654;21.250;2023-03-11T00:37:43;7.70;99.90
59311;DHT22;45078;51.654;21.250;2023-03-11T00:40:12;7.80;99.90
59311;DHT22;45078;51.654;21.250;2023-03-11T00:42:38;7.80;99.90
59311;DHT22;45078;51.654;21.250;2023-03-11T00:45:05;7.90;99.90
59311;DHT22;45078;51.654;21.250;2023-03-11T00:47:31;7.80;99.90
59311;DHT22;45078;51.654;21.250;2023-03-11T00:49:57;7.90;99.90
59311;DHT22;45078;51.654;21.250;2023-03-11T00:52:22;7.90;99.90
59311;DHT22;45078;51.654;21.250;2023-03-11T00:54:48;7.90;99.90
59311;DHT22;45078;51.654;21.250;2023-03-11T00:57:14;7.80;99.90
59311;DHT22;45078;51.654;21.250;2023-03-11T00:59:39;7.70;99.90
59311;DHT22;45078;51.654;21.250;2023-03-11T01:02:05;7.70;99.90
59311;DHT22;45078;51.654;21.250;2023-03-11T01:04:31;7.70;99.90
59311;DHT22;45078;51.654;21.250;2023-03-11T01:06:57;7.70;99.90
59311;DHT22;45078;51.654;21.250;2023-03-11T01:09:22;7.70;99.90
59311;DHT22;45078;51.654;21.250;2023-03-11T01:11:48;7.70;99.90
59311;DHT22;45078;51.654;21.250;2023-03-11T01:14:14;7.70;99.90
59311;DHT22;45078;51.654;21.250;2023-03-11T01:16:40;7.60;99.90
59311;DHT22;45078;51.654;21.250;2023-03-11T01:19:05;7.60;99.90
59311;DHT22;45078;51.654;21.250;2023-03-11T01:21:31;7.60;99.90
59311;DHT22;45078;51.654;21.250;2023-03-11T01:26:32;7.70;99.90
59311;DHT22;45078;51.654;21.250;2023-03-11T01:28:58;7.60;99.90
59311;DHT22;45078;51.654;21.250;2023-03-11T01:31:24;7.60;99.90
59311;DHT22;45078;51.654;21.250;2023-03-11T01:33:49;7.60;99.90
59311;DHT22;45078;51.654;21.250;2023-03-11T01:36:15;7.60;99.90
59311;DHT22;45078;51.654;21.250;2023-03-11T01:38:41;7.60;99.90
59311;DHT22;45078;51.654;21.250;2023-03-11T01:41:07;7.60;99.90
59311;DHT22;45078;51.654;21.250;2023-03-11T01:46:32;7.60;99.90
59311;DHT22;45078;51.654;21.250;2023-03-11T01:48:59;7.60;99.90
59311;DHT22;45078;51.654;21.250;2023-03-11T01:51:33;7.60;99.90
59311;DHT22;45078;51.654;21.250;2023-03-11T01:54:04;7.60;99.90
59311;DHT22;45078;51.654;21.250;2023-03-11T01:56:32;7.50;99.90
59311;DHT22;45078;51.654;21.250;2023-03-11T01:58:58;7.40;99.90
59311;DHT22;45078;51.654;21.250;2023-03-11T02:01:24;7.40;99.90
59311;DHT22;45078;51.654;21.250;2023-03-11T02:03:50;7.30;99.90
59311;DHT22;45078;51.654;21.250;2023-03-11T02:06:22;7.30;99.90
59311;DHT22;45078;51.654;21.250;2023-03-11T02:08:48;7.20;99.90
59311;DHT22;45078;51.654;21.250;2023-03-11T02:11:20;7.10;99.90
59311;DHT22;45078;51.654;21.250;2023-03-11T02:13:47;6.90;99.90
59311;DHT22;45078;51.654;21.250;2023-03-11T02:16:14;6.80;99.90
59311;DHT22;45078;51.654;21.250;2023-03-11T02:18:42;6.70;99.90
59311;DHT22;45078;51.654;21.250;2023-03-11T02:21:29;6.70;99.90
59311;DHT22;45078;51.654;21.250;2023-03-11T02:29:06;6.60;99.90
59311;DHT22;45078;51.654;21.250;2023-03-11T02:31:33;6.60;99.90
59311;DHT22;45078;51.654;21.250;2023-03-11T02:34:01;6.50;99.90
59311;DHT22;45078;51.654;21.250;2023-03-11T02:36:32;6.50;99.90
59311;DHT22;45078;51.654;21.250;2023-03-11T02:38:59;6.40;99.90
59311;DHT22;45078;51.654;21.250;2023-03-11T02:41:25;6.40;99.90
59311;DHT22;45078;51.654;21.250;2023-03-11T02:43:52;6.40;99.90
59311;DHT22;45078;51.654;21.250;2023-03-11T02:46:19;6.50;99.90
59311;DHT22;45078;51.654;21.250;2023-03-11T02:48:45;6.50;99.90
59311;DHT22;45078;51.654;21.250;2023-03-11T02:51:12;6.50;99.90
59311;DHT22;45078;51.654;21.250;2023-03-11T02:53:48;6.50;99.90
59311;DHT22;45078;51.654;21.250;2023-03-11T02:56:15;6.50;99.90
59311;DHT22;45078;51.654;21.250;2023-03-11T02:58:41;6.50;99.90
59311;DHT22;45078;51.654;21.250;2023-03-11T03:01:07;6.40;99.90
59311;DHT22;45078;51.654;21.250;2023-03-11T03:03:32;6.40;99.90
59311;DHT22;45078;51.654;21.250;2023-03-11T03:05:58;6.40;99.90
59311;DHT22;45078;51.654;21.250;2023-03-11T03:08:24;6.40;99.90
59311;DHT22;45078;51.654;21.250;2023-03-11T03:10:50;6.40;99.90
59311;DHT22;45078;51.654;21.250;2023-03-11T03:13:15;6.30;99.90
59311;DHT22;45078;51.654;21.250;2023-03-11T03:15:41;6.30;99.90
59311;DHT22;45078;51.654;21.250;2023-03-11T03:18:07;6.20;99.90
59311;DHT22;45078;51.654;21.250;2023-03-11T03:20:32;6.30;99.90
59311;DHT22;45078;51.654;21.250;2023-03-11T03:22:58;6.40;99.90
59311;DHT22;45078;51.654;21.250;2023-03-11T03:25:24;6.60;99.90
59311;DHT22;45078;51.654;21.250;2023-03-11T03:27:50;6.70;99.90
59311;DHT22;45078;51.654;21.250;2023-03-11T03:30:16;6.70;99.90
59311;DHT22;45078;51.654;21.250;2023-03-11T03:32:41;6.70;99.90
59311;DHT22;45078;51.654;21.250;2023-03-11T03:35:07;6.60;99.90
59311;DHT22;45078;51.654;21.250;2023-03-11T03:37:35;6.60;99.90
59311;DHT22;45078;51.654;21.250;2023-03-11T03:40:03;6.60;99.90
59311;DHT22;45078;51.654;21.250;2023-03-11T03:42:34;6.70;99.90
59311;DHT22;45078;51.654;21.250;2023-03-11T03:45:00;6.60;99.90
59311;DHT22;45078;51.654;21.250;2023-03-11T03:47:26;6.70;99.90
59311;DHT22;45078;51.654;21.250;2023-03-11T03:49:51;6.60;99.90
59311;DHT22;45078;51.654;21.250;2023-03-11T03:52:17;6.70;99.90
59311;DHT22;45078;51.654;21.250;2023-03-11T03:54:43;6.70;99.90
59311;DHT22;45078;51.654;21.250;2023-03-11T03:57:09;6.70;99.90
59311;DHT22;45078;51.654;21.250;2023-03-11T03:59:35;6.70;99.90
59311;DHT22;45078;51.654;21.250;2023-03-11T04:02:01;6.70;99.90
59311;DHT22;45078;51.654;21.250;2023-03-11T04:04:26;6.80;99.90
59311;DHT22;45078;51.654;21.250;2023-03-11T04:06:52;6.80;99.90
59311;DHT22;45078;51.654;21.250;2023-03-11T04:09:18;6.70;99.90
59311;DHT22;45078;51.654;21.250;2023-03-11T04:11:44;6.70;99.90
59311;DHT22;45078;51.654;21.250;2023-03-11T04:14:10;6.70;99.90
59311;DHT22;45078;51.654;21.250;2023-03-11T04:16:36;6.80;99.90
59311;DHT22;45078;51.654;21.250;2023-03-11T04:19:02;6.90;99.90
59311;DHT22;45078;51.654;21.250;2023-03-11T04:21:30;7.00;99.90
59311;DHT22;45078;51.654;21.250;2023-03-11T04:23:56;7.10;99.90
59311;DHT22;45078;51.654;21.250;2023-03-11T04:26:22;7.10;99.90
59311;DHT22;45078;51.654;21.250;2023-03-11T04:28:48;6.90;99.90
59311;DHT22;45078;51.654;21.250;2023-03-11T04:31:14;7.00;99.90
59311;DHT22;45078;51.654;21.250;2023-03-11T04:33:39;7.10;99.90
59311;DHT22;45078;51.654;21.250;2023-03-11T04:36:07;7.20;99.90
59311;DHT22;45078;51.654;21.250;2023-03-11T04:38:33;7.20;99.90
59311;DHT22;45078;51.654;21.250;2023-03-11T04:41:04;7.30;99.90
59311;DHT22;45078;51.654;21.250;2023-03-11T04:43:30;7.20;99.90
59311;DHT22;45078;51.654;21.250;2023-03-11T04:45:56;7.20;99.90
59311;DHT22;45078;51.654;21.250;2023-03-11T04:48:22;7.10;99.90
59311;DHT22;45078;51.654;21.250;2023-03-11T04:50:49;6.90;99.90
59311;DHT22;45078;51.654;21.250;2023-03-11T04:53:15;6.90;99.90
59311;DHT22;45078;51.654;21.250;2023-03-11T04:55:40;6.80;99.90
59311;DHT22;45078;51.654;21.250;2023-03-11T04:58:06;6.70;99.90
59311;DHT22;45078;51.654;21.250;2023-03-11T05:00:32;6.80;99.90
59311;DHT22;45078;51.654;21.250;2023-03-11T05:02:58;6.90;99.90
59311;DHT22;45078;51.654;21.250;2023-03-11T05:05:23;7.00;99.90
59311;DHT22;45078;51.654;21.250;2023-03-11T05:07:49;6.90;99.90
59311;DHT22;45078;51.654;21.250;2023-03-11T05:10:15;7.00;99.90
59311;DHT22;45078;51.654;21.250;2023-03-11T05:12:50;7.00;99.90
59311;DHT22;45078;51.654;21.250;2023-03-11T05:15:16;7.10;99.90
59311;DHT22;45078;51.654;21.250;2023-03-11T05:17:42;7.10;99.90
59311;DHT22;45078;51.654;21.250;2023-03-11T05:20:09;7.10;99.90
59311;DHT22;45078;51.654;21.250;2023-03-11T05:22:35;7.00;99.90
59311;DHT22;45078;51.654;21.250;2023-03-11T05:25:02;6.90;99.90
59311;DHT22;45078;51.654;21.250;2023-03-11T05:27:27;7.00;99.90
59311;DHT22;45078;51.654;21.250;2023-03-11T05:29:53;7.10;99.90
59311;DHT22;45078;51.654;21.250;2023-03-11T05:32:19;7.20;99.90
59311;DHT22;45078;51.654;21.250;2023-03-11T05:34:45;7.30;99.90
59311;DHT22;45078;51.654;21.250;2023-03-11T05:37:11;7.30;99.90
59311;DHT22;45078;51.654;21.250;2023-03-11T05:39:37;7.30;99.90
59311;DHT22;45078;51.654;21.250;2023-03-11T05:42:04;7.30;99.90
59311;DHT22;45078;51.654;21.250;2023-03-11T05:44:31;7.30;99.90
59311;DHT22;45078;51.654;21.250;2023-03-11T05:46:57;7.30;99.90
59311;DHT22;45078;51.654;21.250;2023-03-11T05:49:23;7.20;99.90
59311;DHT22;45078;51.654;21.250;2023-03-11T05:51:49;7.20;99.90
59311;DHT22;45078;51.654;21.250;2023-03-11T05:54:16;7.10;99.90
59311;DHT22;45078;51.654;21.250;2023-03-11T05:56:43;7.10;99.90
59311;DHT22;45078;51.654;21.250;2023-03-11T05:59:10;7.00;99.90
59311;DHT22;45078;51.654;21.250;2023-03-11T06:01:37;7.00;99.90
59311;DHT22;45078;51.654;21.250;2023-03-11T06:04:03;7.00;99.90
59311;DHT22;45078;51.654;21.250;2023-03-11T06:06:29;7.00;99.90
59311;DHT22;45078;51.654;21.250;2023-03-11T06:08:55;7.00;99.90
59311;DHT22;45078;51.654;21.250;2023-03-11T06:11:21;7.00;99.90
59311;DHT22;45078;51.654;21.250;2023-03-11T06:13:52;6.90;99.90
59311;DHT22;45078;51.654;21.250;2023-03-11T06:16:22;7.00;99.90
59311;DHT22;45078;51.654;21.250;2023-03-11T06:18:48;7.10;99.90
59311;DHT22;45078;51.654;21.250;2023-03-11T06:21:16;7.10;99.90
59311;DHT22;45078;51.654;21.250;2023-03-11T06:23:42;7.10;99.90
59311;DHT22;45078;51.654;21.250;2023-03-11T06:26:12;7.10;99.90
59311;DHT22;45078;51.654;21.250;2023-03-11T06:28:38;7.10;99.90
59311;DHT22;45078;51.654;21.250;2023-03-11T06:31:12;7.10;99.90
59311;DHT22;45078;51.654;21.250;2023-03-11T06:33:39;7.10;99.90
59311;DHT22;45078;51.654;21.250;2023-03-11T06:36:05;7.10;99.90
59311;DHT22;45078;51.654;21.250;2023-03-11T06:38:32;7.10;99.90
59311;DHT22;45078;51.654;21.250;2023-03-11T06:41:03;7.10;99.90
59311;DHT22;45078;51.654;21.250;2023-03-11T06:43:30;7.10;99.90
59311;DHT22;45078;51.654;21.250;2023-03-11T06:45:56;7.10;99.90
59311;DHT22;45078;51.654;21.250;2023-03-11T06:48:22;7.10;99.90
59311;DHT22;45078;51.654;21.250;2023-03-11T06:50:56;7.10;99.90
59311;DHT22;45078;51.654;21.250;2023-03-11T06:53:23;7.10;99.90
59311;DHT22;45078;51.654;21.250;2023-03-11T06:56:08;7.10;99.90
59311;DHT22;45078;51.654;21.250;2023-03-11T06:58:37;7.20;99.90
59311;DHT22;45078;51.654;21.250;2023-03-11T07:03:33;7.20;99.90
59311;DHT22;45078;51.654;21.250;2023-03-11T07:05:59;7.20;99.90
59311;DHT22;45078;51.654;21.250;2023-03-11T07:08:25;7.20;99.90
59311;DHT22;45078;51.654;21.250;2023-03-11T07:11:09;7.20;99.90
59311;DHT22;45078;51.654;21.250;2023-03-11T07:13:37;7.10;99.90
59311;DHT22;45078;51.654;21.250;2023-03-11T07:16:14;7.20;99.90
59311;DHT22;45078;51.654;21.250;2023-03-11T07:18:42;7.20;99.90
59311;DHT22;45078;51.654;21.250;2023-03-11T07:21:09;7.20;99.90
59311;DHT22;45078;51.654;21.250;2023-03-11T07:23:36;7.20;99.90
59311;DHT22;45078;51.654;21.250;2023-03-11T07:26:02;7.20;99.90
59311;DHT22;45078;51.654;21.250;2023-03-11T07:28:28;7.20;99.90
59311;DHT22;45078;51.654;21.250;2023-03-11T07:30:54;7.20;99.90
59311;DHT22;45078;51.654;21.250;2023-03-11T07:33:21;7.20;99.90
59311;DHT22;45078;51.654;21.250;2023-03-11T07:35:49;7.20;99.90
59311;DHT22;45078;51.654;21.250;2023-03-11T07:38:15;7.20;99.90
59311;DHT22;45078;51.654;21.250;2023-03-11T07:40:42;7.30;99.90
59311;DHT22;45078;51.654;21.250;2023-03-11T07:43:08;7.30;99.90
59311;DHT22;45078;51.654;21.250;2023-03-11T07:45:34;7.20;99.90
59311;DHT22;45078;51.654;21.250;2023-03-11T07:48:00;7.20;99.90
59311;DHT22;45078;51.654;21.250;2023-03-11T07:50:26;7.20;99.90
59311;DHT22;45078;51.654;21.250;2023-03-11T07:52:52;7.20;99.90
59311;DHT22;45078;51.654;21.250;2023-03-11T07:55:18;7.10;99.90
59311;DHT22;45078;51.654;21.250;2023-03-11T07:57:46;7.00;99.90
59311;DHT22;45078;51.654;21.250;2023-03-11T08:00:13;7.10;99.90
59311;DHT22;45078;51.654;21.250;2023-03-11T08:02:39;7.00;99.90
59311;DHT22;45078;51.654;21.250;2023-03-11T08:05:05;7.00;99.90
59311;DHT22;45078;51.654;21.250;2023-03-11T08:07:31;6.90;99.90
59311;DHT22;45078;51.654;21.250;2023-03-11T08:09:57;6.90;99.90
59311;DHT22;45078;51.654;21.250;2023-03-11T08:12:23;6.90;99.90
59311;DHT22;45078;51.654;21.250;2023-03-11T08:14:49;6.90;99.90
59311;DHT22;45078;51.654;21.250;2023-03-11T08:17:14;7.00;99.90
59311;DHT22;45078;51.654;21.250;2023-03-11T08:19:40;7.00;99.90
59311;DHT22;45078;51.654;21.250;2023-03-11T08:22:06;7.00;99.90
59311;DHT22;45078;51.654;21.250;2023-03-11T08:24:32;7.00;99.90
59311;DHT22;45078;51.654;21.250;2023-03-11T08:26:58;6.90;99.90
59311;DHT22;45078;51.654;21.250;2023-03-11T08:29:24;6.90;99.90
59311;DHT22;45078;51.654;21.250;2023-03-11T08:31:49;6.90;99.90
59311;DHT22;45078;51.654;21.250;2023-03-11T08:34:15;6.80;99.90
59311;DHT22;45078;51.654;21.250;2023-03-11T08:36:42;6.70;99.90
59311;DHT22;45078;51.654;21.250;2023-03-11T08:39:07;6.60;99.90
59311;DHT22;45078;51.654;21.250;2023-03-11T08:41:34;6.60;99.90
59311;DHT22;45078;51.654;21.250;2023-03-11T08:44:00;6.60;99.90
59311;DHT22;45078;51.654;21.250;2023-03-11T08:46:28;6.50;99.90
59311;DHT22;45078;51.654;21.250;2023-03-11T08:48:55;6.50;99.90
59311;DHT22;45078;51.654;21.250;2023-03-11T08:51:22;6.40;99.90
59311;DHT22;45078;51.654;21.250;2023-03-11T08:53:49;6.30;99.90
59311;DHT22;45078;51.654;21.250;2023-03-11T08:56:15;6.30;99.90
59311;DHT22;45078;51.654;21.250;2023-03-11T08:58:42;6.20;99.90
59311;DHT22;45078;51.654;21.250;2023-03-11T09:01:09;6.30;99.90
59311;DHT22;45078;51.654;21.250;2023-03-11T09:03:35;6.20;99.90
59311;DHT22;45078;51.654;21.250;2023-03-11T09:06:07;6.20;99.90
59311;DHT22;45078;51.654;21.250;2023-03-11T09:08:33;6.10;99.90
59311;DHT22;45078;51.654;21.250;2023-03-11T09:10:59;6.00;99.90
59311;DHT22;45078;51.654;21.250;2023-03-11T09:13:25;5.90;99.90
59311;DHT22;45078;51.654;21.250;2023-03-11T09:15:52;5.90;99.90
59311;DHT22;45078;51.654;21.250;2023-03-11T09:18:18;5.80;99.90
59311;DHT22;45078;51.654;21.250;2023-03-11T09:20:44;5.80;99.90
59311;DHT22;45078;51.654;21.250;2023-03-11T09:23:12;5.80;99.90
59311;DHT22;45078;51.654;21.250;2023-03-11T09:25:38;5.80;99.90
59311;DHT22;45078;51.654;21.250;2023-03-11T09:28:04;5.80;99.90
59311;DHT22;45078;51.654;21.250;2023-03-11T09:30:29;5.70;99.90
59311;DHT22;45078;51.654;21.250;2023-03-11T09:32:56;5.60;99.90
59311;DHT22;45078;51.654;21.250;2023-03-11T09:35:22;5.60;99.90
59311;DHT22;45078;51.654;21.250;2023-03-11T09:37:48;5.50;99.90
59311;DHT22;45078;51.654;21.250;2023-03-11T09:40:20;5.50;99.90
59311;DHT22;45078;51.654;21.250;2023-03-11T09:45:27;5.40;99.90
59311;DHT22;45078;51.654;21.250;2023-03-11T09:48:08;5.50;99.90
59311;DHT22;45078;51.654;21.250;2023-03-11T09:50:50;5.40;99.90
59311;DHT22;45078;51.654;21.250;2023-03-11T09:56:00;5.50;99.90
59311;DHT22;45078;51.654;21.250;2023-03-11T09:58:49;5.50;99.90
59311;DHT22;45078;51.654;21.250;2023-03-11T10:01:34;5.40;99.90
59311;DHT22;45078;51.654;21.250;2023-03-11T10:04:16;5.30;99.90
59311;DHT22;45078;51.654;21.250;2023-03-11T10:06:45;5.30;99.90
59311;DHT22;45078;51.654;21.250;2023-03-11T10:09:18;5.20;99.90
59311;DHT22;45078;51.654;21.250;2023-03-11T10:26:02;4.80;99.90
59311;DHT22;45078;51.654;21.250;2023-03-11T10:28:34;4.80;99.90
59311;DHT22;45078;51.654;21.250;2023-03-11T10:31:27;4.80;99.90
59311;DHT22;45078;51.654;21.250;2023-03-11T10:37:03;4.70;99.90
59311;DHT22;45078;51.654;21.250;2023-03-11T10:39:32;4.60;99.90
59311;DHT22;45078;51.654;21.250;2023-03-11T10:42:08;4.60;99.90
59311;DHT22;45078;51.654;21.250;2023-03-11T10:44:40;4.40;99.90
59311;DHT22;45078;51.654;21.250;2023-03-11T10:47:18;4.40;99.90
59311;DHT22;45078;51.654;21.250;2023-03-11T10:49:45;4.40;99.90
59311;DHT22;45078;51.654;21.250;2023-03-11T10:52:11;4.40;99.90
59311;DHT22;45078;51.654;21.250;2023-03-11T10:54:39;4.40;99.90
59311;DHT22;45078;51.654;21.250;2023-03-11T10:57:21;4.30;99.90
59311;DHT22;45078;51.654;21.250;2023-03-11T10:59:49;4.30;99.90
59311;DHT22;45078;51.654;21.250;2023-03-11T11:02:30;4.30;99.90
59311;DHT22;45078;51.654;21.250;2023-03-11T11:05:25;4.30;99.90
59311;DHT22;45078;51.654;21.250;2023-03-11T11:08:06;4.20;99.90
59311;DHT22;45078;51.654;21.250;2023-03-11T11:10:34;4.20;99.90
59311;DHT22;45078;51.654;21.250;2023-03-11T11:15:56;4.20;99.90
59311;DHT22;45078;51.654;21.250;2023-03-11T11:21:33;4.10;99.90
59311;DHT22;45078;51.654;21.250;2023-03-11T11:24:29;4.10;99.90
59311;DHT22;45078;51.654;21.250;2023-03-11T11:27:27;4.00;99.90
59311;DHT22;45078;51.654;21.250;2023-03-11T11:30:13;4.00;99.90
59311;DHT22;45078;51.654;21.250;2023-03-11T11:32:40;3.80;99.90
59311;DHT22;45078;51.654;21.250;2023-03-11T11:35:11;3.70;99.90
59311;DHT22;45078;51.654;21.250;2023-03-11T11:38:00;3.50;99.90
59311;DHT22;45078;51.654;21.250;2023-03-11T11:40:32;3.40;99.90
59311;DHT22;45078;51.654;21.250;2023-03-11T11:43:04;3.20;99.90
59311;DHT22;45078;51.654;21.250;2023-03-11T11:45:37;3.20;99.90
59311;DHT22;45078;51.654;21.250;2023-03-11T11:48:06;3.00;99.90
59311;DHT22;45078;51.654;21.250;2023-03-11T11:50:43;2.90;99.90
59311;DHT22;45078;51.654;21.250;2023-03-11T11:55:54;2.50;99.90
59311;DHT22;45078;51.654;21.250;2023-03-11T11:58:21;2.30;99.90
59311;DHT22;45078;51.654;21.250;2023-03-11T12:00:59;2.20;99.90
59311;DHT22;45078;51.654;21.250;2023-03-11T12:03:38;2.10;99.90
59311;DHT22;45078;51.654;21.250;2023-03-11T12:11:25;1.80;99.90
59311;DHT22;45078;51.654;21.250;2023-03-11T12:17:06;1.70;99.90
59311;DHT22;45078;51.654;21.250;2023-03-11T12:19:53;1.60;99.90
59311;DHT22;45078;51.654;21.250;2023-03-11T12:30:47;1.50;99.90
59311;DHT22;45078;51.654;21.250;2023-03-11T12:33:37;1.50;99.90
59311;DHT22;45078;51.654;21.250;2023-03-11T12:36:05;1.50;99.90
59311;DHT22;45078;51.654;21.250;2023-03-11T12:38:45;1.50;99.90
59311;DHT22;45078;51.654;21.250;2023-03-11T12:46:05;1.50;99.90
59311;DHT22;45078;51.654;21.250;2023-03-11T12:48:47;1.40;99.90
59311;DHT22;45078;51.654;21.250;2023-03-11T12:54:32;1.40;99.90
59311;DHT22;45078;51.654;21.250;2023-03-11T13:08:44;1.20;99.90
59311;DHT22;45078;51.654;21.250;2023-03-11T13:14:20;1.10;99.90
59311;DHT22;45078;51.654;21.250;2023-03-11T13:16:48;1.10;99.90
59311;DHT22;45078;51.654;21.250;2023-03-11T13:19:47;1.10;99.90
59311;DHT22;45078;51.654;21.250;2023-03-11T13:28:53;0.90;99.90
59311;DHT22;45078;51.654;21.250;2023-03-11T13:41:58;0.90;99.90
59311;DHT22;45078;51.654;21.250;2023-03-11T13:44:38;0.80;99.90
59311;DHT22;45078;51.654;21.250;2023-03-11T13:47:15;0.80;99.90
59311;DHT22;45078;51.654;21.250;2023-03-11T13:49:44;0.80;99.90
59311;DHT22;45078;51.654;21.250;2023-03-11T13:52:35;0.80;99.90
59311;DHT22;45078;51.654;21.250;2023-03-11T13:55:47;0.80;99.90
59311;DHT22;45078;51.654;21.250;2023-03-11T13:57:56;0.70;99.90
59311;DHT22;45078;51.654;21.250;2023-03-11T14:00:29;0.80;99.90
59311;DHT22;45078;51.654;21.250;2023-03-11T14:03:00;0.60;99.90
59311;DHT22;45078;51.654;21.250;2023-03-11T14:05:32;0.60;99.90
59311;DHT22;45078;51.654;21.250;2023-03-11T14:08:25;0.60;99.90
59311;DHT22;45078;51.654;21.250;2023-03-11T14:11:03;0.50;99.90
59311;DHT22;45078;51.654;21.250;2023-03-11T14:13:31;0.50;99.90
59311;DHT22;45078;51.654;21.250;2023-03-11T14:18:30;0.50;99.90
59311;DHT22;45078;51.654;21.250;2023-03-11T14:20:56;0.50;99.90
59311;DHT22;45078;51.654;21.250;2023-03-11T14:23:26;0.50;99.90
59311;DHT22;45078;51.654;21.250;2023-03-11T14:26:04;0.50;99.90
59311;DHT22;45078;51.654;21.250;2023-03-11T14:28:34;0.50;99.90
59311;DHT22;45078;51.654;21.250;2023-03-11T14:31:03;0.50;99.90
59311;DHT22;45078;51.654;21.250;2023-03-11T14:33:30;0.50;99.90
59311;DHT22;45078;51.654;21.250;2023-03-11T14:36:02;0.50;99.90
59311;DHT22;45078;51.654;21.250;2023-03-11T14:38:30;0.40;99.90
59311;DHT22;45078;51.654;21.250;2023-03-11T14:41:03;0.40;99.90
59311;DHT22;45078;51.654;21.250;2023-03-11T14:43:37;0.40;99.90
59311;DHT22;45078;51.654;21.250;2023-03-11T14:46:06;0.40;99.90
59311;DHT22;45078;51.654;21.250;2023-03-11T14:48:39;0.40;99.90
59311;DHT22;45078;51.654;21.250;2023-03-11T14:51:26;0.40;99.90
59311;DHT22;45078;51.654;21.250;2023-03-11T14:56:45;0.40;99.90
59311;DHT22;45078;51.654;21.250;2023-03-11T14:59:27;0.50;99.90
59311;DHT22;45078;51.654;21.250;2023-03-11T15:02:51;0.40;99.90
59311;DHT22;45078;51.654;21.250;2023-03-11T15:04:51;0.40;99.90
59311;DHT22;45078;51.654;21.250;2023-03-11T15:07:19;0.40;99.90
59311;DHT22;45078;51.654;21.250;2023-03-11T15:09:46;0.40;99.90
59311;DHT22;45078;51.654;21.250;2023-03-11T15:12:36;0.40;99.90
59311;DHT22;45078;51.654;21.250;2023-03-11T15:15:02;0.40;99.90
59311;DHT22;45078;51.654;21.250;2023-03-11T15:17:52;0.40;99.90
59311;DHT22;45078;51.654;21.250;2023-03-11T15:20:27;0.40;99.90
59311;DHT22;45078;51.654;21.250;2023-03-11T15:23:02;0.40;99.90
59311;DHT22;45078;51.654;21.250;2023-03-11T15:25:35;0.40;99.90
59311;DHT22;45078;51.654;21.250;2023-03-11T15:28:27;0.40;99.90
59311;DHT22;45078;51.654;21.250;2023-03-11T15:31:34;0.40;99.90
59311;DHT22;45078;51.654;21.250;2023-03-11T15:36:39;0.40;99.90
59311;DHT22;45078;51.654;21.250;2023-03-11T15:39:18;0.30;99.90
59311;DHT22;45078;51.654;21.250;2023-03-11T15:41:58;0.30;99.90
59311;DHT22;45078;51.654;21.250;2023-03-11T15:44:32;0.30;99.90
59311;DHT22;45078;51.654;21.250;2023-03-11T15:47:01;0.30;99.90
59311;DHT22;45078;51.654;21.250;2023-03-11T15:49:28;0.30;99.90
59311;DHT22;45078;51.654;21.250;2023-03-11T15:52:01;0.30;99.90
59311;DHT22;45078;51.654;21.250;2023-03-11T15:54:28;0.30;99.90
59311;DHT22;45078;51.654;21.250;2023-03-11T15:56:56;0.30;99.90
59311;DHT22;45078;51.654;21.250;2023-03-11T15:59:23;0.30;99.90
59311;DHT22;45078;51.654;21.250;2023-03-11T16:01:50;0.30;99.90
59311;DHT22;45078;51.654;21.250;2023-03-11T16:04:18;0.30;99.90
59311;DHT22;45078;51.654;21.250;2023-03-11T16:06:45;0.30;99.90
59311;DHT22;45078;51.654;21.250;2023-03-11T16:09:12;0.30;99.90
59311;DHT22;45078;51.654;21.250;2023-03-11T16:11:38;0.30;99.90
59311;DHT22;45078;51.654;21.250;2023-03-11T16:14:05;0.30;99.90
59311;DHT22;45078;51.654;21.250;2023-03-11T16:16:31;0.30;99.90
59311;DHT22;45078;51.654;21.250;2023-03-11T16:18:57;0.30;99.90
59311;DHT22;45078;51.654;21.250;2023-03-11T16:21:33;0.30;99.90
59311;DHT22;45078;51.654;21.250;2023-03-11T16:24:00;0.30;99.90
59311;DHT22;45078;51.654;21.250;2023-03-11T16:26:25;0.30;99.90
59311;DHT22;45078;51.654;21.250;2023-03-11T16:28:51;0.30;99.90
59311;DHT22;45078;51.654;21.250;2023-03-11T16:31:17;0.30;99.90
59311;DHT22;45078;51.654;21.250;2023-03-11T16:33:43;0.30;99.90
59311;DHT22;45078;51.654;21.250;2023-03-11T16:36:09;0.20;99.90
59311;DHT22;45078;51.654;21.250;2023-03-11T16:38:47;0.20;99.90
59311;DHT22;45078;51.654;21.250;2023-03-11T16:41:13;0.10;99.90
59311;DHT22;45078;51.654;21.250;2023-03-11T16:43:39;0.10;99.90
59311;DHT22;45078;51.654;21.250;2023-03-11T16:46:05;0.10;99.90
59311;DHT22;45078;51.654;21.250;2023-03-11T16:48:31;0.10;99.90
59311;DHT22;45078;51.654;21.250;2023-03-11T16:50:57;0.10;99.90
59311;DHT22;45078;51.654;21.250;2023-03-11T16:53:23;0.10;99.90
59311;DHT22;45078;51.654;21.250;2023-03-11T16:55:51;0.10;99.90
59311;DHT22;45078;51.654;21.250;2023-03-11T16:58:19;0.10;99.90
59311;DHT22;45078;51.654;21.250;2023-03-11T17:00:45;0.20;99.90
59311;DHT22;45078;51.654;21.250;2023-03-11T17:03:12;0.10;99.90
59311;DHT22;45078;51.654;21.250;2023-03-11T17:05:38;0.20;99.90
59311;DHT22;45078;51.654;21.250;2023-03-11T17:08:04;0.20;99.90
59311;DHT22;45078;51.654;21.250;2023-03-11T17:10:39;0.20;99.90
59311;DHT22;45078;51.654;21.250;2023-03-11T17:13:06;0.20;99.90
59311;DHT22;45078;51.654;21.250;2023-03-11T17:15:32;0.20;99.90
59311;DHT22;45078;51.654;21.250;2023-03-11T17:18:00;0.20;99.90
59311;DHT22;45078;51.654;21.250;2023-03-11T17:20:26;0.20;99.90
59311;DHT22;45078;51.654;21.250;2023-03-11T17:22:52;0.20;99.90
59311;DHT22;45078;51.654;21.250;2023-03-11T17:25:18;0.20;99.90
59311;DHT22;45078;51.654;21.250;2023-03-11T17:27:44;0.20;99.90
59311;DHT22;45078;51.654;21.250;2023-03-11T17:30:11;0.20;99.90
59311;DHT22;45078;51.654;21.250;2023-03-11T17:32:37;0.10;99.90